sensor_id;sensor_type;location;lat;lon;timestamp;temperature;humidity
52867;DHT22;38739;53.324;6.862;2023-06-26T00:01:43;22.70;99.90
52867;DHT22;38739;53.324;6.862;2023-06-26T00:04:08;22.70;99.90
52867;DHT22;38739;53.324;6.862;2023-06-26T00:06:40;22.70;99.90
52867;DHT22;38739;53.324;6.862;2023-06-26T00:09:07;22.60;99.90
52867;DHT22;38739;53.324;6.862;2023-06-26T00:11:33;22.60;99.90
52867;DHT22;38739;53.324;6.862;2023-06-26T00:13:59;22.50;99.90
52867;DHT22;38739;53.324;6.862;2023-06-26T00:16:28;22.50;99.90
52867;DHT22;38739;53.324;6.862;2023-06-26T00:18:56;22.50;99.90
52867;DHT22;38739;53.324;6.862;2023-06-26T00:21:24;22.50;99.90
52867;DHT22;38739;53.324;6.862;2023-06-26T00:23:51;22.40;99.90
52867;DHT22;38739;53.324;6.862;2023-06-26T00:26:16;22.40;99.90
52867;DHT22;38739;53.324;6.862;2023-06-26T00:28:42;22.40;99.90
52867;DHT22;38739;53.324;6.862;2023-06-26T00:31:08;22.40;99.90
52867;DHT22;38739;53.324;6.862;2023-06-26T00:33:33;22.40;99.90
52867;DHT22;38739;53.324;6.862;2023-06-26T00:35:59;22.30;99.90
52867;DHT22;38739;53.324;6.862;2023-06-26T00:38:25;22.30;99.90
52867;DHT22;38739;53.324;6.862;2023-06-26T00:40:51;22.30;99.90
52867;DHT22;38739;53.324;6.862;2023-06-26T00:43:16;22.30;99.90
52867;DHT22;38739;53.324;6.862;2023-06-26T00:45:42;22.20;99.90
52867;DHT22;38739;53.324;6.862;2023-06-26T00:48:09;22.20;99.90
52867;DHT22;38739;53.324;6.862;2023-06-26T00:50:37;22.20;99.90
52867;DHT22;38739;53.324;6.862;2023-06-26T00:53:03;22.20;99.90
52867;DHT22;38739;53.324;6.862;2023-06-26T00:55:29;22.10;99.90
52867;DHT22;38739;53.324;6.862;2023-06-26T00:57:55;22.10;99.90
52867;DHT22;38739;53.324;6.862;2023-06-26T01:00:21;22.10;99.90
52867;DHT22;38739;53.324;6.862;2023-06-26T01:02:47;22.10;99.90
52867;DHT22;38739;53.324;6.862;2023-06-26T01:05:13;22.10;99.90
52867;DHT22;38739;53.324;6.862;2023-06-26T01:07:50;22.10;99.90
52867;DHT22;38739;53.324;6.862;2023-06-26T01:10:16;22.00;99.90
52867;DHT22;38739;53.324;6.862;2023-06-26T01:12:43;22.00;99.90
52867;DHT22;38739;53.324;6.862;2023-06-26T01:15:09;22.00;99.90
52867;DHT22;38739;53.324;6.862;2023-06-26T01:17:37;22.00;99.90
52867;DHT22;38739;53.324;6.862;2023-06-26T01:20:05;22.00;99.90
52867;DHT22;38739;53.324;6.862;2023-06-26T01:28:06;21.90;99.90
52867;DHT22;38739;53.324;6.862;2023-06-26T01:30:35;21.90;99.90
52867;DHT22;38739;53.324;6.862;2023-06-26T01:33:02;21.90;99.90
52867;DHT22;38739;53.324;6.862;2023-06-26T01:35:28;21.90;99.90
52867;DHT22;38739;53.324;6.862;2023-06-26T01:38:17;21.80;99.90
52867;DHT22;38739;53.324;6.862;2023-06-26T01:40:43;21.80;99.90
52867;DHT22;38739;53.324;6.862;2023-06-26T01:43:20;21.80;99.90
52867;DHT22;38739;53.324;6.862;2023-06-26T01:45:51;21.70;99.90
52867;DHT22;38739;53.324;6.862;2023-06-26T01:48:23;21.80;99.90
52867;DHT22;38739;53.324;6.862;2023-06-26T01:50:52;21.70;99.90
52867;DHT22;38739;53.324;6.862;2023-06-26T01:53:22;21.70;99.90
52867;DHT22;38739;53.324;6.862;2023-06-26T01:55:53;21.70;99.90
52867;DHT22;38739;53.324;6.862;2023-06-26T01:58:23;21.60;99.90
52867;DHT22;38739;53.324;6.862;2023-06-26T02:00:49;21.60;99.90
52867;DHT22;38739;53.324;6.862;2023-06-26T02:03:15;21.60;99.90
52867;DHT22;38739;53.324;6.862;2023-06-26T02:05:41;21.60;99.90
52867;DHT22;38739;53.324;6.862;2023-06-26T02:08:08;21.60;99.90
52867;DHT22;38739;53.324;6.862;2023-06-26T02:10:34;21.60;99.90
52867;DHT22;38739;53.324;6.862;2023-06-26T02:13:00;21.60;99.90
52867;DHT22;38739;53.324;6.862;2023-06-26T02:15:26;21.60;99.90
52867;DHT22;38739;53.324;6.862;2023-06-26T02:17:51;21.50;99.90
52867;DHT22;38739;53.324;6.862;2023-06-26T02:20:17;21.50;99.90
52867;DHT22;38739;53.324;6.862;2023-06-26T02:22:43;21.50;99.90
52867;DHT22;38739;53.324;6.862;2023-06-26T02:25:09;21.50;99.90
52867;DHT22;38739;53.324;6.862;2023-06-26T02:27:35;21.50;99.90
52867;DHT22;38739;53.324;6.862;2023-06-26T02:30:01;21.40;99.90
52867;DHT22;38739;53.324;6.862;2023-06-26T02:32:27;21.40;99.90
52867;DHT22;38739;53.324;6.862;2023-06-26T02:34:53;21.40;99.90
52867;DHT22;38739;53.324;6.862;2023-06-26T02:37:19;21.30;99.90
52867;DHT22;38739;53.324;6.862;2023-06-26T02:39:45;21.30;99.90
52867;DHT22;38739;53.324;6.862;2023-06-26T02:42:11;21.30;99.90
52867;DHT22;38739;53.324;6.862;2023-06-26T02:44:37;21.30;99.90
52867;DHT22;38739;53.324;6.862;2023-06-26T02:47:02;21.20;99.90
52867;DHT22;38739;53.324;6.862;2023-06-26T02:49:28;21.20;99.90
52867;DHT22;38739;53.324;6.862;2023-06-26T02:51:54;21.20;99.90
52867;DHT22;38739;53.324;6.862;2023-06-26T02:54:20;21.10;99.90
52867;DHT22;38739;53.324;6.862;2023-06-26T02:56:46;21.10;99.90
52867;DHT22;38739;53.324;6.862;2023-06-26T02:59:11;21.10;99.90
52867;DHT22;38739;53.324;6.862;2023-06-26T03:01:37;21.10;99.90
52867;DHT22;38739;53.324;6.862;2023-06-26T03:04:04;21.00;99.90
52867;DHT22;38739;53.324;6.862;2023-06-26T03:06:30;21.00;99.90
52867;DHT22;38739;53.324;6.862;2023-06-26T03:08:56;21.00;99.90
52867;DHT22;38739;53.324;6.862;2023-06-26T03:11:21;21.00;99.90
52867;DHT22;38739;53.324;6.862;2023-06-26T03:13:47;21.00;99.90
52867;DHT22;38739;53.324;6.862;2023-06-26T03:16:13;20.90;99.90
52867;DHT22;38739;53.324;6.862;2023-06-26T03:18:38;20.90;99.90
52867;DHT22;38739;53.324;6.862;2023-06-26T03:21:04;20.90;99.90
52867;DHT22;38739;53.324;6.862;2023-06-26T03:23:30;20.90;99.90
52867;DHT22;38739;53.324;6.862;2023-06-26T03:25:56;20.90;99.90
52867;DHT22;38739;53.324;6.862;2023-06-26T03:28:21;20.90;99.90
52867;DHT22;38739;53.324;6.862;2023-06-26T03:30:47;20.80;99.90
52867;DHT22;38739;53.324;6.862;2023-06-26T03:33:13;20.90;99.90
52867;DHT22;38739;53.324;6.862;2023-06-26T03:35:38;20.90;99.90
52867;DHT22;38739;53.324;6.862;2023-06-26T03:38:05;20.90;99.90
52867;DHT22;38739;53.324;6.862;2023-06-26T03:40:31;20.90;99.90
52867;DHT22;38739;53.324;6.862;2023-06-26T03:42:56;20.90;99.90
52867;DHT22;38739;53.324;6.862;2023-06-26T03:45:22;20.90;99.90
52867;DHT22;38739;53.324;6.862;2023-06-26T03:47:48;21.00;99.90
52867;DHT22;38739;53.324;6.862;2023-06-26T03:50:15;21.00;99.90
52867;DHT22;38739;53.324;6.862;2023-06-26T03:52:41;21.00;99.90
52867;DHT22;38739;53.324;6.862;2023-06-26T03:55:07;21.00;99.90
52867;DHT22;38739;53.324;6.862;2023-06-26T03:57:33;21.10;99.90
52867;DHT22;38739;53.324;6.862;2023-06-26T03:59:59;21.10;99.90
52867;DHT22;38739;53.324;6.862;2023-06-26T04:02:24;21.20;99.90
52867;DHT22;38739;53.324;6.862;2023-06-26T04:04:50;21.10;99.90
52867;DHT22;38739;53.324;6.862;2023-06-26T04:07:18;21.20;99.90
52867;DHT22;38739;53.324;6.862;2023-06-26T04:09:43;21.20;99.90
52867;DHT22;38739;53.324;6.862;2023-06-26T04:12:10;21.30;99.90
52867;DHT22;38739;53.324;6.862;2023-06-26T04:14:36;21.30;99.90
52867;DHT22;38739;53.324;6.862;2023-06-26T04:17:02;21.30;99.90
52867;DHT22;38739;53.324;6.862;2023-06-26T04:19:29;21.30;99.90
52867;DHT22;38739;53.324;6.862;2023-06-26T04:21:55;21.30;99.90
52867;DHT22;38739;53.324;6.862;2023-06-26T04:24:20;21.30;99.90
52867;DHT22;38739;53.324;6.862;2023-06-26T04:26:46;21.30;99.90
52867;DHT22;38739;53.324;6.862;2023-06-26T04:29:12;21.30;99.90
52867;DHT22;38739;53.324;6.862;2023-06-26T04:31:38;21.30;99.90
52867;DHT22;38739;53.324;6.862;2023-06-26T04:34:04;21.30;99.90
52867;DHT22;38739;53.324;6.862;2023-06-26T04:36:30;21.30;99.90
52867;DHT22;38739;53.324;6.862;2023-06-26T04:38:57;21.30;99.90
52867;DHT22;38739;53.324;6.862;2023-06-26T04:41:24;21.30;99.90
52867;DHT22;38739;53.324;6.862;2023-06-26T04:43:50;21.30;99.90
52867;DHT22;38739;53.324;6.862;2023-06-26T04:46:16;21.40;99.90
52867;DHT22;38739;53.324;6.862;2023-06-26T04:48:42;21.40;99.90
52867;DHT22;38739;53.324;6.862;2023-06-26T04:51:10;21.40;99.90
52867;DHT22;38739;53.324;6.862;2023-06-26T04:53:36;21.50;99.90
52867;DHT22;38739;53.324;6.862;2023-06-26T04:56:01;21.60;99.90
52867;DHT22;38739;53.324;6.862;2023-06-26T04:58:27;21.60;99.90
52867;DHT22;38739;53.324;6.862;2023-06-26T05:00:53;21.70;99.90
52867;DHT22;38739;53.324;6.862;2023-06-26T05:03:20;21.70;99.90
52867;DHT22;38739;53.324;6.862;2023-06-26T05:05:47;21.80;99.90
52867;DHT22;38739;53.324;6.862;2023-06-26T05:10:39;22.00;99.90
52867;DHT22;38739;53.324;6.862;2023-06-26T05:13:05;22.00;99.90
52867;DHT22;38739;53.324;6.862;2023-06-26T05:15:31;22.10;99.90
52867;DHT22;38739;53.324;6.862;2023-06-26T05:17:56;22.10;99.90
52867;DHT22;38739;53.324;6.862;2023-06-26T05:20:22;22.10;99.90
52867;DHT22;38739;53.324;6.862;2023-06-26T05:22:48;22.10;99.90
52867;DHT22;38739;53.324;6.862;2023-06-26T05:25:15;22.20;99.90
52867;DHT22;38739;53.324;6.862;2023-06-26T05:27:41;22.10;99.90
52867;DHT22;38739;53.324;6.862;2023-06-26T05:30:08;22.10;99.90
52867;DHT22;38739;53.324;6.862;2023-06-26T05:32:34;22.10;99.90
52867;DHT22;38739;53.324;6.862;2023-06-26T05:35:02;22.10;99.90
52867;DHT22;38739;53.324;6.862;2023-06-26T05:37:29;22.00;99.90
52867;DHT22;38739;53.324;6.862;2023-06-26T05:39:56;21.90;99.90
52867;DHT22;38739;53.324;6.862;2023-06-26T05:42:22;21.90;99.90
52867;DHT22;38739;53.324;6.862;2023-06-26T05:44:48;21.80;99.90
52867;DHT22;38739;53.324;6.862;2023-06-26T05:47:13;21.70;99.90
52867;DHT22;38739;53.324;6.862;2023-06-26T05:49:39;21.60;99.90
52867;DHT22;38739;53.324;6.862;2023-06-26T05:52:05;21.60;99.90
52867;DHT22;38739;53.324;6.862;2023-06-26T05:54:31;21.50;99.90
52867;DHT22;38739;53.324;6.862;2023-06-26T05:56:58;21.40;99.90
52867;DHT22;38739;53.324;6.862;2023-06-26T05:59:26;21.30;99.90
52867;DHT22;38739;53.324;6.862;2023-06-26T06:01:53;21.10;99.90
52867;DHT22;38739;53.324;6.862;2023-06-26T06:04:18;20.90;99.90
52867;DHT22;38739;53.324;6.862;2023-06-26T06:06:44;20.80;99.90
52867;DHT22;38739;53.324;6.862;2023-06-26T06:09:10;20.80;99.90
52867;DHT22;38739;53.324;6.862;2023-06-26T06:11:35;20.70;99.90
52867;DHT22;38739;53.324;6.862;2023-06-26T06:14:01;20.60;99.90
52867;DHT22;38739;53.324;6.862;2023-06-26T06:16:28;20.60;99.90
52867;DHT22;38739;53.324;6.862;2023-06-26T06:18:55;20.50;99.90
52867;DHT22;38739;53.324;6.862;2023-06-26T06:21:20;20.50;99.90
52867;DHT22;38739;53.324;6.862;2023-06-26T06:23:46;20.40;99.90
52867;DHT22;38739;53.324;6.862;2023-06-26T06:26:12;20.30;99.90
52867;DHT22;38739;53.324;6.862;2023-06-26T06:28:39;20.40;99.90
52867;DHT22;38739;53.324;6.862;2023-06-26T06:31:05;20.30;99.90
52867;DHT22;38739;53.324;6.862;2023-06-26T06:33:30;20.30;99.90
52867;DHT22;38739;53.324;6.862;2023-06-26T06:35:56;20.40;99.90
52867;DHT22;38739;53.324;6.862;2023-06-26T06:38:22;20.40;99.90
52867;DHT22;38739;53.324;6.862;2023-06-26T06:40:48;20.60;99.90
52867;DHT22;38739;53.324;6.862;2023-06-26T06:43:14;20.70;99.90
52867;DHT22;38739;53.324;6.862;2023-06-26T06:45:39;20.80;99.90
52867;DHT22;38739;53.324;6.862;2023-06-26T06:48:05;20.90;99.90
52867;DHT22;38739;53.324;6.862;2023-06-26T06:50:31;21.00;99.90
52867;DHT22;38739;53.324;6.862;2023-06-26T06:52:57;20.90;99.90
52867;DHT22;38739;53.324;6.862;2023-06-26T06:55:22;21.00;99.90
52867;DHT22;38739;53.324;6.862;2023-06-26T06:57:49;20.90;99.90
52867;DHT22;38739;53.324;6.862;2023-06-26T07:00:15;20.90;99.90
52867;DHT22;38739;53.324;6.862;2023-06-26T07:02:46;20.90;99.90
52867;DHT22;38739;53.324;6.862;2023-06-26T07:05:12;21.00;99.90
52867;DHT22;38739;53.324;6.862;2023-06-26T07:07:38;21.10;99.90
52867;DHT22;38739;53.324;6.862;2023-06-26T07:10:06;21.10;99.90
52867;DHT22;38739;53.324;6.862;2023-06-26T07:12:33;21.10;99.90
52867;DHT22;38739;53.324;6.862;2023-06-26T07:15:00;21.10;99.90
52867;DHT22;38739;53.324;6.862;2023-06-26T07:17:26;21.20;99.90
52867;DHT22;38739;53.324;6.862;2023-06-26T07:19:52;21.40;99.90
52867;DHT22;38739;53.324;6.862;2023-06-26T07:22:18;21.50;99.90
52867;DHT22;38739;53.324;6.862;2023-06-26T07:24:49;21.70;99.90
52867;DHT22;38739;53.324;6.862;2023-06-26T07:27:15;21.80;99.90
52867;DHT22;38739;53.324;6.862;2023-06-26T07:29:42;22.00;99.90
52867;DHT22;38739;53.324;6.862;2023-06-26T07:32:07;22.10;99.90
52867;DHT22;38739;53.324;6.862;2023-06-26T07:34:33;22.30;99.90
52867;DHT22;38739;53.324;6.862;2023-06-26T07:36:59;22.30;99.90
52867;DHT22;38739;53.324;6.862;2023-06-26T07:39:25;22.40;99.90
52867;DHT22;38739;53.324;6.862;2023-06-26T07:41:50;22.50;99.90
52867;DHT22;38739;53.324;6.862;2023-06-26T07:44:16;22.60;99.90
52867;DHT22;38739;53.324;6.862;2023-06-26T07:46:42;22.70;99.90
52867;DHT22;38739;53.324;6.862;2023-06-26T07:49:07;22.90;99.90
52867;DHT22;38739;53.324;6.862;2023-06-26T07:51:33;23.10;99.90
52867;DHT22;38739;53.324;6.862;2023-06-26T07:53:59;23.20;99.90
52867;DHT22;38739;53.324;6.862;2023-06-26T07:56:25;23.10;99.90
52867;DHT22;38739;53.324;6.862;2023-06-26T07:58:50;23.00;99.90
52867;DHT22;38739;53.324;6.862;2023-06-26T08:01:16;22.80;99.90
52867;DHT22;38739;53.324;6.862;2023-06-26T08:03:42;23.00;99.90
52867;DHT22;38739;53.324;6.862;2023-06-26T08:06:07;23.10;99.90
52867;DHT22;38739;53.324;6.862;2023-06-26T08:08:33;23.30;99.90
52867;DHT22;38739;53.324;6.862;2023-06-26T08:10:59;23.40;99.90
52867;DHT22;38739;53.324;6.862;2023-06-26T08:13:25;23.50;99.90
52867;DHT22;38739;53.324;6.862;2023-06-26T08:15:50;23.60;99.90
52867;DHT22;38739;53.324;6.862;2023-06-26T08:18:17;23.70;99.90
52867;DHT22;38739;53.324;6.862;2023-06-26T08:20:43;23.80;99.90
52867;DHT22;38739;53.324;6.862;2023-06-26T08:23:08;23.70;99.90
52867;DHT22;38739;53.324;6.862;2023-06-26T08:25:34;23.60;99.90
52867;DHT22;38739;53.324;6.862;2023-06-26T08:28:00;23.60;99.90
52867;DHT22;38739;53.324;6.862;2023-06-26T08:30:26;23.80;99.90
52867;DHT22;38739;53.324;6.862;2023-06-26T08:32:55;23.90;99.90
52867;DHT22;38739;53.324;6.862;2023-06-26T08:35:20;23.90;99.90
52867;DHT22;38739;53.324;6.862;2023-06-26T08:37:46;23.90;99.90
52867;DHT22;38739;53.324;6.862;2023-06-26T08:40:12;23.90;99.90
52867;DHT22;38739;53.324;6.862;2023-06-26T08:42:41;23.90;99.90
52867;DHT22;38739;53.324;6.862;2023-06-26T08:45:08;23.90;99.90
52867;DHT22;38739;53.324;6.862;2023-06-26T08:47:34;23.90;99.90
52867;DHT22;38739;53.324;6.862;2023-06-26T08:50:13;24.00;99.90
52867;DHT22;38739;53.324;6.862;2023-06-26T08:53:03;24.00;99.90
52867;DHT22;38739;53.324;6.862;2023-06-26T08:55:31;24.00;99.90
52867;DHT22;38739;53.324;6.862;2023-06-26T08:57:59;23.80;99.90
52867;DHT22;38739;53.324;6.862;2023-06-26T09:00:25;23.90;99.90
52867;DHT22;38739;53.324;6.862;2023-06-26T09:02:51;24.10;99.90
52867;DHT22;38739;53.324;6.862;2023-06-26T09:05:17;24.30;99.90
52867;DHT22;38739;53.324;6.862;2023-06-26T09:07:42;24.60;99.90
52867;DHT22;38739;53.324;6.862;2023-06-26T09:10:09;24.90;99.90
52867;DHT22;38739;53.324;6.862;2023-06-26T09:12:35;25.00;99.90
52867;DHT22;38739;53.324;6.862;2023-06-26T09:15:02;25.30;99.90
52867;DHT22;38739;53.324;6.862;2023-06-26T09:17:33;25.30;99.90
52867;DHT22;38739;53.324;6.862;2023-06-26T09:20:04;25.40;99.90
52867;DHT22;38739;53.324;6.862;2023-06-26T09:22:33;25.60;99.90
52867;DHT22;38739;53.324;6.862;2023-06-26T09:24:58;25.60;99.90
52867;DHT22;38739;53.324;6.862;2023-06-26T09:27:25;25.50;99.90
52867;DHT22;38739;53.324;6.862;2023-06-26T09:29:51;25.40;99.90
52867;DHT22;38739;53.324;6.862;2023-06-26T09:32:16;25.40;99.90
52867;DHT22;38739;53.324;6.862;2023-06-26T09:34:43;25.70;99.90
52867;DHT22;38739;53.324;6.862;2023-06-26T09:37:12;25.80;99.90
52867;DHT22;38739;53.324;6.862;2023-06-26T09:39:39;25.70;99.90
52867;DHT22;38739;53.324;6.862;2023-06-26T09:42:05;25.40;99.90
52867;DHT22;38739;53.324;6.862;2023-06-26T09:44:33;25.30;99.90
52867;DHT22;38739;53.324;6.862;2023-06-26T09:46:59;25.10;99.90
52867;DHT22;38739;53.324;6.862;2023-06-26T09:49:27;25.00;99.90
52867;DHT22;38739;53.324;6.862;2023-06-26T09:51:53;24.90;99.90
52867;DHT22;38739;53.324;6.862;2023-06-26T09:54:21;25.10;99.90
52867;DHT22;38739;53.324;6.862;2023-06-26T09:56:47;25.40;99.90
52867;DHT22;38739;53.324;6.862;2023-06-26T09:59:13;25.70;99.90
52867;DHT22;38739;53.324;6.862;2023-06-26T10:01:43;25.60;99.90
52867;DHT22;38739;53.324;6.862;2023-06-26T10:04:10;25.60;99.90
52867;DHT22;38739;53.324;6.862;2023-06-26T10:06:44;25.70;99.90
52867;DHT22;38739;53.324;6.862;2023-06-26T10:09:11;25.70;99.30
52867;DHT22;38739;53.324;6.862;2023-06-26T10:12:01;25.60;99.90
52867;DHT22;38739;53.324;6.862;2023-06-26T10:14:31;25.90;99.80
52867;DHT22;38739;53.324;6.862;2023-06-26T10:17:01;26.30;99.90
52867;DHT22;38739;53.324;6.862;2023-06-26T10:19:30;26.40;98.70
52867;DHT22;38739;53.324;6.862;2023-06-26T10:21:58;26.40;97.60
52867;DHT22;38739;53.324;6.862;2023-06-26T10:24:26;26.40;97.50
52867;DHT22;38739;53.324;6.862;2023-06-26T10:26:59;26.50;97.40
52867;DHT22;38739;53.324;6.862;2023-06-26T10:29:26;26.50;97.40
52867;DHT22;38739;53.324;6.862;2023-06-26T10:31:55;26.60;97.80
52867;DHT22;38739;53.324;6.862;2023-06-26T10:34:23;26.30;97.30
52867;DHT22;38739;53.324;6.862;2023-06-26T10:37:01;26.40;97.80
52867;DHT22;38739;53.324;6.862;2023-06-26T10:39:27;26.60;98.40
52867;DHT22;38739;53.324;6.862;2023-06-26T10:42:08;26.70;97.80
52867;DHT22;38739;53.324;6.862;2023-06-26T10:44:42;26.60;96.40
52867;DHT22;38739;53.324;6.862;2023-06-26T10:47:09;26.80;97.40
52867;DHT22;38739;53.324;6.862;2023-06-26T10:49:37;27.20;96.70
52867;DHT22;38739;53.324;6.862;2023-06-26T10:52:05;27.50;95.50
52867;DHT22;38739;53.324;6.862;2023-06-26T10:54:32;27.50;93.30
52867;DHT22;38739;53.324;6.862;2023-06-26T10:56:59;27.50;92.50
52867;DHT22;38739;53.324;6.862;2023-06-26T10:59:30;27.50;91.20
52867;DHT22;38739;53.324;6.862;2023-06-26T11:01:58;27.20;91.20
52867;DHT22;38739;53.324;6.862;2023-06-26T11:04:56;27.30;91.30
52867;DHT22;38739;53.324;6.862;2023-06-26T11:07:26;27.80;91.90
52867;DHT22;38739;53.324;6.862;2023-06-26T11:10:07;27.80;91.20
52867;DHT22;38739;53.324;6.862;2023-06-26T11:12:44;27.50;90.50
52867;DHT22;38739;53.324;6.862;2023-06-26T11:15:16;27.40;90.30
52867;DHT22;38739;53.324;6.862;2023-06-26T11:17:43;27.20;91.30
52867;DHT22;38739;53.324;6.862;2023-06-26T11:20:12;27.20;91.80
52867;DHT22;38739;53.324;6.862;2023-06-26T11:22:39;27.40;91.20
52867;DHT22;38739;53.324;6.862;2023-06-26T11:25:06;27.40;90.90
52867;DHT22;38739;53.324;6.862;2023-06-26T11:27:38;27.30;90.00
52867;DHT22;38739;53.324;6.862;2023-06-26T11:30:05;27.60;90.50
52867;DHT22;38739;53.324;6.862;2023-06-26T11:32:31;27.90;89.20
52867;DHT22;38739;53.324;6.862;2023-06-26T11:34:58;28.20;88.30
52867;DHT22;38739;53.324;6.862;2023-06-26T11:37:25;28.40;87.30
52867;DHT22;38739;53.324;6.862;2023-06-26T11:39:51;28.20;84.40
52867;DHT22;38739;53.324;6.862;2023-06-26T11:42:18;28.20;84.80
52867;DHT22;38739;53.324;6.862;2023-06-26T11:44:44;27.80;82.80
52867;DHT22;38739;53.324;6.862;2023-06-26T11:47:17;27.50;84.30
52867;DHT22;38739;53.324;6.862;2023-06-26T11:49:44;27.30;84.20
52867;DHT22;38739;53.324;6.862;2023-06-26T11:52:11;27.50;84.10
52867;DHT22;38739;53.324;6.862;2023-06-26T11:54:37;27.40;84.10
52867;DHT22;38739;53.324;6.862;2023-06-26T11:57:03;27.60;83.70
52867;DHT22;38739;53.324;6.862;2023-06-26T11:59:38;27.80;84.60
52867;DHT22;38739;53.324;6.862;2023-06-26T12:02:12;28.20;79.80
52867;DHT22;38739;53.324;6.862;2023-06-26T12:04:41;28.40;79.50
52867;DHT22;38739;53.324;6.862;2023-06-26T12:07:08;28.60;79.90
52867;DHT22;38739;53.324;6.862;2023-06-26T12:09:43;28.70;79.20
52867;DHT22;38739;53.324;6.862;2023-06-26T12:12:10;29.00;78.30
52867;DHT22;38739;53.324;6.862;2023-06-26T12:14:36;29.10;76.80
52867;DHT22;38739;53.324;6.862;2023-06-26T12:17:10;29.10;75.30
52867;DHT22;38739;53.324;6.862;2023-06-26T12:19:43;29.30;73.70
52867;DHT22;38739;53.324;6.862;2023-06-26T12:22:09;29.50;75.50
52867;DHT22;38739;53.324;6.862;2023-06-26T12:24:37;29.60;74.90
52867;DHT22;38739;53.324;6.862;2023-06-26T12:27:15;29.70;74.40
52867;DHT22;38739;53.324;6.862;2023-06-26T12:29:53;29.50;71.40
52867;DHT22;38739;53.324;6.862;2023-06-26T12:32:19;29.50;71.10
52867;DHT22;38739;53.324;6.862;2023-06-26T12:34:49;29.50;72.60
52867;DHT22;38739;53.324;6.862;2023-06-26T12:37:16;28.90;70.60
52867;DHT22;38739;53.324;6.862;2023-06-26T12:39:49;28.90;71.70
52867;DHT22;38739;53.324;6.862;2023-06-26T12:42:26;29.00;70.90
52867;DHT22;38739;53.324;6.862;2023-06-26T12:44:53;28.80;71.00
52867;DHT22;38739;53.324;6.862;2023-06-26T12:47:27;28.90;72.00
52867;DHT22;38739;53.324;6.862;2023-06-26T12:49:53;29.00;70.80
52867;DHT22;38739;53.324;6.862;2023-06-26T12:52:20;29.00;70.00
52867;DHT22;38739;53.324;6.862;2023-06-26T12:54:47;28.90;69.60
52867;DHT22;38739;53.324;6.862;2023-06-26T12:57:16;29.10;70.50
52867;DHT22;38739;53.324;6.862;2023-06-26T12:59:42;29.00;71.30
52867;DHT22;38739;53.324;6.862;2023-06-26T13:02:09;29.10;72.30
52867;DHT22;38739;53.324;6.862;2023-06-26T13:04:36;29.00;72.10
52867;DHT22;38739;53.324;6.862;2023-06-26T13:07:05;28.80;72.20
52867;DHT22;38739;53.324;6.862;2023-06-26T13:09:33;28.60;72.10
52867;DHT22;38739;53.324;6.862;2023-06-26T13:11:59;28.20;72.50
52867;DHT22;38739;53.324;6.862;2023-06-26T13:14:24;28.00;72.60
52867;DHT22;38739;53.324;6.862;2023-06-26T13:16:51;27.80;73.60
52867;DHT22;38739;53.324;6.862;2023-06-26T13:19:17;27.50;74.30
52867;DHT22;38739;53.324;6.862;2023-06-26T13:21:43;27.40;75.30
52867;DHT22;38739;53.324;6.862;2023-06-26T13:24:08;27.50;75.40
52867;DHT22;38739;53.324;6.862;2023-06-26T13:26:34;27.30;75.50
52867;DHT22;38739;53.324;6.862;2023-06-26T13:29:00;27.30;75.30
52867;DHT22;38739;53.324;6.862;2023-06-26T13:31:26;27.00;75.40
52867;DHT22;38739;53.324;6.862;2023-06-26T13:33:52;26.80;75.70
52867;DHT22;38739;53.324;6.862;2023-06-26T13:36:18;26.60;75.60
52867;DHT22;38739;53.324;6.862;2023-06-26T13:38:44;26.50;77.10
52867;DHT22;38739;53.324;6.862;2023-06-26T13:41:10;26.50;77.30
52867;DHT22;38739;53.324;6.862;2023-06-26T13:43:36;26.30;78.50
52867;DHT22;38739;53.324;6.862;2023-06-26T13:46:02;26.20;79.20
52867;DHT22;38739;53.324;6.862;2023-06-26T13:48:29;26.10;79.80
52867;DHT22;38739;53.324;6.862;2023-06-26T13:50:55;26.00;80.40
52867;DHT22;38739;53.324;6.862;2023-06-26T13:53:21;25.70;80.70
52867;DHT22;38739;53.324;6.862;2023-06-26T13:55:47;25.60;80.50
52867;DHT22;38739;53.324;6.862;2023-06-26T13:58:13;25.70;81.80
52867;DHT22;38739;53.324;6.862;2023-06-26T14:00:40;25.60;82.00
52867;DHT22;38739;53.324;6.862;2023-06-26T14:03:07;25.60;82.90
52867;DHT22;38739;53.324;6.862;2023-06-26T14:05:37;25.60;83.30
52867;DHT22;38739;53.324;6.862;2023-06-26T14:08:04;25.80;83.50
52867;DHT22;38739;53.324;6.862;2023-06-26T14:10:31;26.00;82.80
52867;DHT22;38739;53.324;6.862;2023-06-26T14:12:59;26.20;81.60
52867;DHT22;38739;53.324;6.862;2023-06-26T14:15:25;26.70;81.00
52867;DHT22;38739;53.324;6.862;2023-06-26T14:17:50;26.60;80.20
52867;DHT22;38739;53.324;6.862;2023-06-26T14:20:17;26.50;79.80
52867;DHT22;38739;53.324;6.862;2023-06-26T14:22:43;26.40;80.90
52867;DHT22;38739;53.324;6.862;2023-06-26T14:25:10;26.10;80.90
52867;DHT22;38739;53.324;6.862;2023-06-26T14:27:36;25.90;81.70
52867;DHT22;38739;53.324;6.862;2023-06-26T14:30:03;25.60;82.50
52867;DHT22;38739;53.324;6.862;2023-06-26T14:32:29;25.40;82.90
52867;DHT22;38739;53.324;6.862;2023-06-26T14:34:56;25.40;84.50
52867;DHT22;38739;53.324;6.862;2023-06-26T14:37:22;25.50;85.40
52867;DHT22;38739;53.324;6.862;2023-06-26T14:39:47;25.40;84.90
52867;DHT22;38739;53.324;6.862;2023-06-26T14:42:13;25.40;85.30
52867;DHT22;38739;53.324;6.862;2023-06-26T14:44:39;25.40;84.70
52867;DHT22;38739;53.324;6.862;2023-06-26T14:47:04;25.20;84.00
52867;DHT22;38739;53.324;6.862;2023-06-26T14:49:30;25.10;83.60
52867;DHT22;38739;53.324;6.862;2023-06-26T14:51:56;25.20;84.60
52867;DHT22;38739;53.324;6.862;2023-06-26T14:54:22;25.10;85.20
52867;DHT22;38739;53.324;6.862;2023-06-26T14:56:48;25.00;85.70
52867;DHT22;38739;53.324;6.862;2023-06-26T14:59:14;25.10;86.00
52867;DHT22;38739;53.324;6.862;2023-06-26T15:01:39;25.20;85.90
52867;DHT22;38739;53.324;6.862;2023-06-26T15:04:06;25.20;86.10
52867;DHT22;38739;53.324;6.862;2023-06-26T15:06:32;25.30;86.00
52867;DHT22;38739;53.324;6.862;2023-06-26T15:08:58;25.30;85.10
52867;DHT22;38739;53.324;6.862;2023-06-26T15:11:24;25.30;85.40
52867;DHT22;38739;53.324;6.862;2023-06-26T15:13:50;25.10;85.00
52867;DHT22;38739;53.324;6.862;2023-06-26T15:16:16;24.90;85.90
52867;DHT22;38739;53.324;6.862;2023-06-26T15:18:42;24.90;86.30
52867;DHT22;38739;53.324;6.862;2023-06-26T15:21:07;24.90;86.60
52867;DHT22;38739;53.324;6.862;2023-06-26T15:23:34;24.70;87.40
52867;DHT22;38739;53.324;6.862;2023-06-26T15:26:00;24.70;87.50
52867;DHT22;38739;53.324;6.862;2023-06-26T15:28:25;24.70;86.70
52867;DHT22;38739;53.324;6.862;2023-06-26T15:30:51;24.60;86.80
52867;DHT22;38739;53.324;6.862;2023-06-26T15:33:17;24.60;87.20
52867;DHT22;38739;53.324;6.862;2023-06-26T15:35:43;24.70;87.70
52867;DHT22;38739;53.324;6.862;2023-06-26T15:38:08;24.80;87.70